sensor_id;sensor_type;location;lat;lon;timestamp;pressure;altitude;pressure_sealevel;temperature;humidity
45991;BME280;31721;41.740;-88.000;2022-09-03T00:00:06;99029.41;;;28.13;37.85
45991;BME280;31721;41.740;-88.000;2022-09-03T00:02:39;99036.75;;;27.85;38.06
45991;BME280;31721;41.740;-88.000;2022-09-03T00:05:15;99041.48;;;27.93;38.39
45991;BME280;31721;41.740;-88.000;2022-09-03T00:07:48;99036.86;;;28.14;38.02
45991;BME280;31721;41.740;-88.000;2022-09-03T00:10:23;99037.10;;;28.01;38.41
45991;BME280;31721;41.740;-88.000;2022-09-03T00:12:56;99037.89;;;27.89;38.71
45991;BME280;31721;41.740;-88.000;2022-09-03T00:15:25;99042.30;;;27.92;38.77
45991;BME280;31721;41.740;-88.000;2022-09-03T00:17:57;99046.00;;;28.18;38.69
45991;BME280;31721;41.740;-88.000;2022-09-03T00:20:31;99041.35;;;27.94;38.94
45991;BME280;31721;41.740;-88.000;2022-09-03T00:23:04;99042.50;;;27.86;39.25
45991;BME280;31721;41.740;-88.000;2022-09-03T00:25:38;99041.77;;;27.73;39.37
45991;BME280;31721;41.740;-88.000;2022-09-03T00:28:12;99041.02;;;27.52;39.53
45991;BME280;31721;41.740;-88.000;2022-09-03T00:30:42;99039.11;;;27.44;39.77
45991;BME280;31721;41.740;-88.000;2022-09-03T00:33:18;99035.33;;;27.36;39.71
45991;BME280;31721;41.740;-88.000;2022-09-03T00:35:50;99034.27;;;27.33;39.87
45991;BME280;31721;41.740;-88.000;2022-09-03T00:38:18;99032.64;;;27.26;40.10
45991;BME280;31721;41.740;-88.000;2022-09-03T00:41:00;99033.13;;;27.23;40.36
45991;BME280;31721;41.740;-88.000;2022-09-03T00:43:43;99037.92;;;27.20;40.59
45991;BME280;31721;41.740;-88.000;2022-09-03T00:46:21;99036.52;;;27.13;40.79
45991;BME280;31721;41.740;-88.000;2022-09-03T00:49:02;99037.00;;;27.15;40.93
45991;BME280;31721;41.740;-88.000;2022-09-03T00:51:40;99037.18;;;27.06;41.01
45991;BME280;31721;41.740;-88.000;2022-09-03T00:54:18;99037.66;;;27.01;41.20
45991;BME280;31721;41.740;-88.000;2022-09-03T00:56:56;99031.88;;;26.77;40.97
45991;BME280;31721;41.740;-88.000;2022-09-03T00:59:33;99028.13;;;26.73;41.36
45991;BME280;31721;41.740;-88.000;2022-09-03T01:02:14;99027.86;;;26.75;41.42
45991;BME280;31721;41.740;-88.000;2022-09-03T01:04:55;99031.89;;;26.65;41.49
45991;BME280;31721;41.740;-88.000;2022-09-03T01:07:34;99036.51;;;26.58;41.33
45991;BME280;31721;41.740;-88.000;2022-09-03T01:10:15;99039.19;;;26.59;41.66
45991;BME280;31721;41.740;-88.000;2022-09-03T01:12:54;99039.74;;;26.47;41.82
45991;BME280;31721;41.740;-88.000;2022-09-03T01:15:29;99039.99;;;26.56;41.88
45991;BME280;31721;41.740;-88.000;2022-09-03T01:18:12;99043.79;;;26.41;42.18
45991;BME280;31721;41.740;-88.000;2022-09-03T01:20:51;99050.31;;;26.37;42.46
45991;BME280;31721;41.740;-88.000;2022-09-03T01:28:22;99060.48;;;26.10;43.14
45991;BME280;31721;41.740;-88.000;2022-09-03T01:30:56;99065.24;;;26.03;43.32
45991;BME280;31721;41.740;-88.000;2022-09-03T01:33:32;99064.18;;;25.96;43.46
45991;BME280;31721;41.740;-88.000;2022-09-03T01:36:10;99067.92;;;25.89;43.67
45991;BME280;31721;41.740;-88.000;2022-09-03T01:38:47;99067.74;;;25.90;43.86
45991;BME280;31721;41.740;-88.000;2022-09-03T01:41:26;99069.70;;;25.79;44.13
45991;BME280;31721;41.740;-88.000;2022-09-03T01:44:05;99065.49;;;25.74;44.20
45991;BME280;31721;41.740;-88.000;2022-09-03T01:46:40;99064.19;;;25.71;44.28
45991;BME280;31721;41.740;-88.000;2022-09-03T01:49:16;99062.18;;;25.55;44.39
45991;BME280;31721;41.740;-88.000;2022-09-03T01:51:47;99066.74;;;25.48;44.65
45991;BME280;31721;41.740;-88.000;2022-09-03T01:54:29;99072.99;;;25.54;44.78
45991;BME280;31721;41.740;-88.000;2022-09-03T01:57:42;99079.04;;;25.35;44.71
45991;BME280;31721;41.740;-88.000;2022-09-03T02:00:13;99084.62;;;25.54;44.82
45991;BME280;31721;41.740;-88.000;2022-09-03T02:02:43;99089.61;;;25.47;44.73
45991;BME280;31721;41.740;-88.000;2022-09-03T02:05:14;99089.24;;;25.43;44.64
45991;BME280;31721;41.740;-88.000;2022-09-03T02:07:44;99090.31;;;25.38;44.59
45991;BME280;31721;41.740;-88.000;2022-09-03T02:10:14;99095.90;;;25.25;44.72
45991;BME280;31721;41.740;-88.000;2022-09-03T02:12:47;99097.58;;;25.21;44.94
45991;BME280;31721;41.740;-88.000;2022-09-03T02:15:18;99098.49;;;25.16;45.23
45991;BME280;31721;41.740;-88.000;2022-09-03T02:17:48;99092.80;;;24.97;44.95
45991;BME280;31721;41.740;-88.000;2022-09-03T02:20:19;99090.04;;;24.88;45.49
45991;BME280;31721;41.740;-88.000;2022-09-03T02:22:49;99090.03;;;24.72;45.48
45991;BME280;31721;41.740;-88.000;2022-09-03T02:25:17;99092.13;;;24.76;45.31
45991;BME280;31721;41.740;-88.000;2022-09-03T02:27:46;99095.61;;;24.76;45.82
45991;BME280;31721;41.740;-88.000;2022-09-03T02:30:14;99099.09;;;24.92;45.74
45991;BME280;31721;41.740;-88.000;2022-09-03T02:32:41;99101.20;;;24.83;45.80
45991;BME280;31721;41.740;-88.000;2022-09-03T02:35:09;99105.16;;;24.88;45.92
45991;BME280;31721;41.740;-88.000;2022-09-03T02:37:37;99107.93;;;24.82;46.05
45991;BME280;31721;41.740;-88.000;2022-09-03T02:40:05;99112.56;;;24.75;46.26
45991;BME280;31721;41.740;-88.000;2022-09-03T02:42:32;99111.45;;;24.65;46.20
45991;BME280;31721;41.740;-88.000;2022-09-03T02:45:06;99112.26;;;24.57;46.60
45991;BME280;31721;41.740;-88.000;2022-09-03T02:47:40;99110.04;;;24.59;46.78
45991;BME280;31721;41.740;-88.000;2022-09-03T02:50:11;99105.55;;;24.62;46.82
45991;BME280;31721;41.740;-88.000;2022-09-03T02:52:39;99104.90;;;24.41;47.12
45991;BME280;31721;41.740;-88.000;2022-09-03T02:55:07;99102.01;;;24.39;47.34
45991;BME280;31721;41.740;-88.000;2022-09-03T02:57:35;99099.36;;;24.41;47.43
45991;BME280;31721;41.740;-88.000;2022-09-03T03:00:04;99101.10;;;24.37;47.47
45991;BME280;31721;41.740;-88.000;2022-09-03T03:02:32;99110.30;;;24.27;47.49
45991;BME280;31721;41.740;-88.000;2022-09-03T03:05:00;99113.14;;;24.15;47.59
45991;BME280;31721;41.740;-88.000;2022-09-03T03:07:27;99120.05;;;24.20;47.71
45991;BME280;31721;41.740;-88.000;2022-09-03T03:09:58;99122.35;;;24.16;47.83
45991;BME280;31721;41.740;-88.000;2022-09-03T03:12:26;99124.98;;;24.06;48.02
45991;BME280;31721;41.740;-88.000;2022-09-03T03:14:53;99130.04;;;24.12;48.13
45991;BME280;31721;41.740;-88.000;2022-09-03T03:17:21;99140.41;;;23.98;48.11
45991;BME280;31721;41.740;-88.000;2022-09-03T03:19:49;99147.21;;;24.00;48.27
45991;BME280;31721;41.740;-88.000;2022-09-03T03:22:16;99148.47;;;23.98;48.57
45991;BME280;31721;41.740;-88.000;2022-09-03T03:24:44;99146.11;;;23.90;48.52
45991;BME280;31721;41.740;-88.000;2022-09-03T03:27:12;99149.27;;;23.97;48.42
45991;BME280;31721;41.740;-88.000;2022-09-03T03:29:40;99152.53;;;23.96;48.48
45991;BME280;31721;41.740;-88.000;2022-09-03T03:32:07;99155.39;;;23.89;48.52
45991;BME280;31721;41.740;-88.000;2022-09-03T03:34:35;99159.76;;;23.99;48.73
45991;BME280;31721;41.740;-88.000;2022-09-03T03:37:03;99161.84;;;24.01;48.66
45991;BME280;31721;41.740;-88.000;2022-09-03T03:39:35;99162.09;;;23.99;48.73
45991;BME280;31721;41.740;-88.000;2022-09-03T03:42:03;99167.72;;;24.15;48.65
45991;BME280;31721;41.740;-88.000;2022-09-03T03:44:31;99174.08;;;24.23;48.68
45991;BME280;31721;41.740;-88.000;2022-09-03T03:46:59;99176.22;;;24.21;48.34
45991;BME280;31721;41.740;-88.000;2022-09-03T03:49:26;99172.56;;;24.15;48.60
45991;BME280;31721;41.740;-88.000;2022-09-03T03:51:53;99168.25;;;24.14;48.79
45991;BME280;31721;41.740;-88.000;2022-09-03T03:54:21;99169.18;;;24.30;48.66
45991;BME280;31721;41.740;-88.000;2022-09-03T03:56:48;99168.99;;;24.21;48.76
45991;BME280;31721;41.740;-88.000;2022-09-03T03:59:16;99171.66;;;24.17;48.67
45991;BME280;31721;41.740;-88.000;2022-09-03T04:01:44;99174.52;;;24.11;48.72
45991;BME280;31721;41.740;-88.000;2022-09-03T04:04:11;99176.39;;;24.12;48.89
45991;BME280;31721;41.740;-88.000;2022-09-03T04:06:39;99185.36;;;24.25;49.10
45991;BME280;31721;41.740;-88.000;2022-09-03T04:09:07;99188.86;;;24.17;48.94
45991;BME280;31721;41.740;-88.000;2022-09-03T04:11:34;99187.24;;;24.24;48.91
45991;BME280;31721;41.740;-88.000;2022-09-03T04:14:02;99189.80;;;24.08;48.92
45991;BME280;31721;41.740;-88.000;2022-09-03T04:16:30;99193.48;;;24.06;49.11
45991;BME280;31721;41.740;-88.000;2022-09-03T04:18:58;99195.35;;;24.06;49.18
45991;BME280;31721;41.740;-88.000;2022-09-03T04:21:27;99195.95;;;23.99;49.32
45991;BME280;31721;41.740;-88.000;2022-09-03T04:23:55;99195.98;;;23.87;49.35
45991;BME280;31721;41.740;-88.000;2022-09-03T04:26:25;99195.19;;;23.82;49.55
45991;BME280;31721;41.740;-88.000;2022-09-03T04:28:53;99195.07;;;23.77;49.83
45991;BME280;31721;41.740;-88.000;2022-09-03T04:31:21;99190.40;;;23.75;50.39
45991;BME280;31721;41.740;-88.000;2022-09-03T04:33:49;99189.92;;;23.72;50.24
45991;BME280;31721;41.740;-88.000;2022-09-03T04:36:18;99192.17;;;23.76;50.21
45991;BME280;31721;41.740;-88.000;2022-09-03T04:38:47;99192.64;;;23.65;50.46
45991;BME280;31721;41.740;-88.000;2022-09-03T04:41:17;99194.77;;;23.65;50.61
45991;BME280;31721;41.740;-88.000;2022-09-03T04:43:45;99198.57;;;23.71;50.46
45991;BME280;31721;41.740;-88.000;2022-09-03T04:46:14;99205.65;;;23.49;50.86
45991;BME280;31721;41.740;-88.000;2022-09-03T04:48:42;99204.48;;;23.54;50.86
45991;BME280;31721;41.740;-88.000;2022-09-03T04:51:11;99205.09;;;23.55;50.86
45991;BME280;31721;41.740;-88.000;2022-09-03T04:53:41;99203.00;;;23.44;50.89
45991;BME280;31721;41.740;-88.000;2022-09-03T04:56:12;99205.84;;;23.42;51.11
45991;BME280;31721;41.740;-88.000;2022-09-03T04:58:46;99206.67;;;23.37;51.21
45991;BME280;31721;41.740;-88.000;2022-09-03T05:01:17;99212.79;;;23.26;51.36
45991;BME280;31721;41.740;-88.000;2022-09-03T05:03:45;99216.94;;;23.35;51.64
45991;BME280;31721;41.740;-88.000;2022-09-03T05:06:13;99214.80;;;23.26;51.63
45991;BME280;31721;41.740;-88.000;2022-09-03T05:08:40;99213.03;;;23.30;51.67
45991;BME280;31721;41.740;-88.000;2022-09-03T05:11:08;99213.38;;;23.05;51.48
45991;BME280;31721;41.740;-88.000;2022-09-03T05:13:35;99217.09;;;23.05;51.90
45991;BME280;31721;41.740;-88.000;2022-09-03T05:16:05;99223.05;;;22.89;51.56
45991;BME280;31721;41.740;-88.000;2022-09-03T05:18:33;99230.17;;;22.98;52.03
45991;BME280;31721;41.740;-88.000;2022-09-03T05:21:02;99237.29;;;22.95;51.81
45991;BME280;31721;41.740;-88.000;2022-09-03T05:23:31;99232.85;;;22.98;51.89
45991;BME280;31721;41.740;-88.000;2022-09-03T05:26:03;99224.74;;;22.97;52.27
45991;BME280;31721;41.740;-88.000;2022-09-03T05:28:30;99218.73;;;23.20;52.61
45991;BME280;31721;41.740;-88.000;2022-09-03T05:31:05;99219.44;;;23.24;52.34
45991;BME280;31721;41.740;-88.000;2022-09-03T05:33:34;99221.35;;;23.47;52.09
45991;BME280;31721;41.740;-88.000;2022-09-03T05:36:03;99219.76;;;23.21;51.92
45991;BME280;31721;41.740;-88.000;2022-09-03T05:38:31;99221.19;;;23.29;52.17
45991;BME280;31721;41.740;-88.000;2022-09-03T05:41:00;99218.83;;;23.35;52.14
45991;BME280;31721;41.740;-88.000;2022-09-03T05:43:28;99218.58;;;23.50;52.62
45991;BME280;31721;41.740;-88.000;2022-09-03T05:45:58;99218.14;;;23.45;52.57
45991;BME280;31721;41.740;-88.000;2022-09-03T05:48:25;99213.12;;;23.30;52.13
45991;BME280;31721;41.740;-88.000;2022-09-03T05:50:58;99213.09;;;23.33;52.52
45991;BME280;31721;41.740;-88.000;2022-09-03T05:53:27;99213.04;;;23.40;52.46
45991;BME280;31721;41.740;-88.000;2022-09-03T05:55:55;99210.95;;;23.37;52.43
45991;BME280;31721;41.740;-88.000;2022-09-03T05:58:23;99208.91;;;23.37;52.47
45991;BME280;31721;41.740;-88.000;2022-09-03T06:00:50;99207.91;;;23.41;52.50
45991;BME280;31721;41.740;-88.000;2022-09-03T06:03:18;99204.95;;;23.24;52.52
45991;BME280;31721;41.740;-88.000;2022-09-03T06:05:49;99202.21;;;23.20;52.53
45991;BME280;31721;41.740;-88.000;2022-09-03T06:08:17;99199.42;;;23.17;52.65
45991;BME280;31721;41.740;-88.000;2022-09-03T06:10:44;99201.17;;;23.05;52.69
45991;BME280;31721;41.740;-88.000;2022-09-03T06:13:12;99205.53;;;23.18;52.97
45991;BME280;31721;41.740;-88.000;2022-09-03T06:15:40;99204.63;;;22.99;52.81
45991;BME280;31721;41.740;-88.000;2022-09-03T06:18:07;99206.06;;;22.95;53.19
45991;BME280;31721;41.740;-88.000;2022-09-03T06:20:35;99201.73;;;23.00;53.09
45991;BME280;31721;41.740;-88.000;2022-09-03T06:23:02;99197.48;;;23.07;53.29
45991;BME280;31721;41.740;-88.000;2022-09-03T06:25:30;99196.15;;;23.10;53.53
45991;BME280;31721;41.740;-88.000;2022-09-03T06:27:58;99193.17;;;23.16;53.48
45991;BME280;31721;41.740;-88.000;2022-09-03T06:30:26;99191.08;;;23.27;53.39
45991;BME280;31721;41.740;-88.000;2022-09-03T06:32:53;99189.66;;;23.37;53.30
45991;BME280;31721;41.740;-88.000;2022-09-03T06:35:21;99188.01;;;23.34;53.26
45991;BME280;31721;41.740;-88.000;2022-09-03T06:37:49;99187.04;;;23.38;53.35
45991;BME280;31721;41.740;-88.000;2022-09-03T06:40:16;99179.62;;;23.33;53.38
45991;BME280;31721;41.740;-88.000;2022-09-03T06:42:53;99179.62;;;23.33;53.70
45991;BME280;31721;41.740;-88.000;2022-09-03T06:45:22;99183.89;;;23.29;53.62
45991;BME280;31721;41.740;-88.000;2022-09-03T06:47:49;99195.21;;;23.30;53.72
45991;BME280;31721;41.740;-88.000;2022-09-03T06:50:17;99200.07;;;23.38;53.87
45991;BME280;31721;41.740;-88.000;2022-09-03T06:52:50;99196.95;;;23.14;53.77
45991;BME280;31721;41.740;-88.000;2022-09-03T06:55:17;99196.28;;;23.39;54.12
45991;BME280;31721;41.740;-88.000;2022-09-03T06:57:45;99196.30;;;23.37;54.06
45991;BME280;31721;41.740;-88.000;2022-09-03T07:00:14;99199.25;;;23.56;53.91
45991;BME280;31721;41.740;-88.000;2022-09-03T07:02:42;99205.46;;;23.57;53.94
45991;BME280;31721;41.740;-88.000;2022-09-03T07:05:10;99207.78;;;23.43;53.89
45991;BME280;31721;41.740;-88.000;2022-09-03T07:07:38;99205.97;;;23.42;54.41
45991;BME280;31721;41.740;-88.000;2022-09-03T07:10:06;99200.25;;;23.34;54.18
45991;BME280;31721;41.740;-88.000;2022-09-03T07:12:33;99194.37;;;23.35;54.17
45991;BME280;31721;41.740;-88.000;2022-09-03T07:15:00;99194.76;;;23.31;54.39
45991;BME280;31721;41.740;-88.000;2022-09-03T07:17:28;99188.03;;;23.60;54.43
45991;BME280;31721;41.740;-88.000;2022-09-03T07:19:56;99188.58;;;23.29;54.33
45991;BME280;31721;41.740;-88.000;2022-09-03T07:22:25;99188.32;;;23.16;54.45
45991;BME280;31721;41.740;-88.000;2022-09-03T07:24:53;99187.31;;;23.30;54.89
45991;BME280;31721;41.740;-88.000;2022-09-03T07:27:20;99182.71;;;23.07;54.96
45991;BME280;31721;41.740;-88.000;2022-09-03T07:29:47;99181.14;;;23.15;55.57
45991;BME280;31721;41.740;-88.000;2022-09-03T07:32:15;99182.47;;;23.11;55.31
45991;BME280;31721;41.740;-88.000;2022-09-03T07:34:43;99181.89;;;23.00;55.33
45991;BME280;31721;41.740;-88.000;2022-09-03T07:37:10;99188.87;;;22.94;55.55
45991;BME280;31721;41.740;-88.000;2022-09-03T07:39:37;99189.37;;;23.12;55.55
45991;BME280;31721;41.740;-88.000;2022-09-03T07:42:05;99195.25;;;23.30;55.58
45991;BME280;31721;41.740;-88.000;2022-09-03T07:44:33;99202.13;;;23.04;55.15
45991;BME280;31721;41.740;-88.000;2022-09-03T07:47:00;99207.30;;;23.00;55.53
45991;BME280;31721;41.740;-88.000;2022-09-03T07:49:28;99207.23;;;23.26;55.67
45991;BME280;31721;41.740;-88.000;2022-09-03T07:51:55;99199.75;;;23.03;55.55
45991;BME280;31721;41.740;-88.000;2022-09-03T07:54:23;99197.59;;;23.07;55.51
45991;BME280;31721;41.740;-88.000;2022-09-03T07:56:50;99197.05;;;23.05;55.83
45991;BME280;31721;41.740;-88.000;2022-09-03T07:59:18;99197.67;;;22.92;55.69
45991;BME280;31721;41.740;-88.000;2022-09-03T08:01:46;99199.10;;;22.75;56.18
45991;BME280;31721;41.740;-88.000;2022-09-03T08:04:13;99200.45;;;22.73;56.02
45991;BME280;31721;41.740;-88.000;2022-09-03T08:06:41;99206.24;;;22.61;56.08
45991;BME280;31721;41.740;-88.000;2022-09-03T08:09:11;99211.77;;;22.52;56.15
45991;BME280;31721;41.740;-88.000;2022-09-03T08:11:40;99210.19;;;22.57;56.52
45991;BME280;31721;41.740;-88.000;2022-09-03T08:14:10;99209.52;;;22.79;56.46
45991;BME280;31721;41.740;-88.000;2022-09-03T08:16:40;99203.92;;;23.03;56.14
45991;BME280;31721;41.740;-88.000;2022-09-03T08:19:13;99204.74;;;23.11;55.97
45991;BME280;31721;41.740;-88.000;2022-09-03T08:21:41;99205.07;;;23.00;56.27
45991;BME280;31721;41.740;-88.000;2022-09-03T08:24:09;99206.83;;;23.14;56.15
45991;BME280;31721;41.740;-88.000;2022-09-03T08:26:39;99203.35;;;22.74;56.49
45991;BME280;31721;41.740;-88.000;2022-09-03T08:29:07;99201.68;;;22.62;56.30
45991;BME280;31721;41.740;-88.000;2022-09-03T08:31:35;99208.20;;;22.57;56.82
45991;BME280;31721;41.740;-88.000;2022-09-03T08:34:05;99207.60;;;22.59;56.92
45991;BME280;31721;41.740;-88.000;2022-09-03T08:36:35;99205.60;;;22.54;56.94
45991;BME280;31721;41.740;-88.000;2022-09-03T08:39:05;99201.80;;;22.55;56.96
45991;BME280;31721;41.740;-88.000;2022-09-03T08:41:42;99205.41;;;22.51;56.91
45991;BME280;31721;41.740;-88.000;2022-09-03T08:44:22;99208.22;;;22.65;56.66
45991;BME280;31721;41.740;-88.000;2022-09-03T08:46:54;99209.81;;;22.65;56.69
45991;BME280;31721;41.740;-88.000;2022-09-03T08:49:28;99202.79;;;22.66;56.78
45991;BME280;31721;41.740;-88.000;2022-09-03T08:52:02;99195.77;;;22.41;56.93
45991;BME280;31721;41.740;-88.000;2022-09-03T08:54:32;99197.67;;;22.61;56.98
45991;BME280;31721;41.740;-88.000;2022-09-03T08:57:01;99201.64;;;22.38;56.91
45991;BME280;31721;41.740;-88.000;2022-09-03T08:59:30;99198.91;;;22.40;57.09
45991;BME280;31721;41.740;-88.000;2022-09-03T09:02:09;99197.77;;;22.26;57.18
45991;BME280;31721;41.740;-88.000;2022-09-03T09:04:52;99197.44;;;22.17;57.54
45991;BME280;31721;41.740;-88.000;2022-09-03T09:07:29;99198.92;;;22.10;57.44
45991;BME280;31721;41.740;-88.000;2022-09-03T09:10:03;99189.27;;;21.97;57.76
45991;BME280;31721;41.740;-88.000;2022-09-03T09:12:44;99180.92;;;22.16;57.89
45991;BME280;31721;41.740;-88.000;2022-09-03T09:15:22;99175.02;;;22.13;57.83
45991;BME280;31721;41.740;-88.000;2022-09-03T09:18:04;99175.19;;;22.17;58.17
45991;BME280;31721;41.740;-88.000;2022-09-03T09:20:41;99174.93;;;22.16;57.87
45991;BME280;31721;41.740;-88.000;2022-09-03T09:23:14;99175.41;;;22.14;57.89
45991;BME280;31721;41.740;-88.000;2022-09-03T09:25:47;99175.26;;;22.11;57.90
45991;BME280;31721;41.740;-88.000;2022-09-03T09:28:18;99176.56;;;22.14;57.96
45991;BME280;31721;41.740;-88.000;2022-09-03T09:30:48;99172.14;;;21.94;57.74
45991;BME280;31721;41.740;-88.000;2022-09-03T09:33:17;99171.19;;;21.89;58.16
45991;BME280;31721;41.740;-88.000;2022-09-03T09:35:46;99173.23;;;21.98;58.02
45991;BME280;31721;41.740;-88.000;2022-09-03T09:38:13;99183.47;;;21.68;58.07
45991;BME280;31721;41.740;-88.000;2022-09-03T09:40:43;99182.79;;;21.55;58.53
45991;BME280;31721;41.740;-88.000;2022-09-03T09:43:12;99180.74;;;21.78;58.57
45991;BME280;31721;41.740;-88.000;2022-09-03T09:45:43;99179.78;;;21.79;58.66
45991;BME280;31721;41.740;-88.000;2022-09-03T09:48:20;99179.07;;;21.94;58.49
45991;BME280;31721;41.740;-88.000;2022-09-03T09:50:48;99179.07;;;21.82;58.46
45991;BME280;31721;41.740;-88.000;2022-09-03T09:53:17;99180.97;;;21.81;58.68
45991;BME280;31721;41.740;-88.000;2022-09-03T09:55:50;99185.26;;;21.78;58.40
45991;BME280;31721;41.740;-88.000;2022-09-03T09:58:19;99188.06;;;21.99;58.59
45991;BME280;31721;41.740;-88.000;2022-09-03T10:00:57;99191.50;;;21.77;58.53
45991;BME280;31721;41.740;-88.000;2022-09-03T10:03:25;99184.82;;;21.86;58.62
45991;BME280;31721;41.740;-88.000;2022-09-03T10:06:00;99186.37;;;21.94;58.54
45991;BME280;31721;41.740;-88.000;2022-09-03T10:08:28;99190.36;;;21.81;58.30
45991;BME280;31721;41.740;-88.000;2022-09-03T10:10:56;99191.55;;;21.63;58.45
45991;BME280;31721;41.740;-88.000;2022-09-03T10:13:27;99191.65;;;21.52;58.58
45991;BME280;31721;41.740;-88.000;2022-09-03T10:16:00;99199.48;;;21.48;58.86
45991;BME280;31721;41.740;-88.000;2022-09-03T10:18:36;99205.78;;;21.38;59.09
45991;BME280;31721;41.740;-88.000;2022-09-03T10:21:09;99213.09;;;21.36;59.12
45991;BME280;31721;41.740;-88.000;2022-09-03T10:23:49;99217.43;;;21.45;59.36
45991;BME280;31721;41.740;-88.000;2022-09-03T10:26:20;99215.66;;;21.39;59.32
45991;BME280;31721;41.740;-88.000;2022-09-03T10:28:50;99208.94;;;21.48;59.38
45991;BME280;31721;41.740;-88.000;2022-09-03T10:31:32;99208.34;;;21.70;59.13
45991;BME280;31721;41.740;-88.000;2022-09-03T10:34:08;99218.31;;;21.50;59.19
45991;BME280;31721;41.740;-88.000;2022-09-03T10:36:44;99221.43;;;21.60;59.12
45991;BME280;31721;41.740;-88.000;2022-09-03T10:39:21;99218.32;;;21.45;59.07
45991;BME280;31721;41.740;-88.000;2022-09-03T10:41:59;99219.58;;;21.44;58.94
45991;BME280;31721;41.740;-88.000;2022-09-03T10:44:47;99225.09;;;21.35;59.35
45991;BME280;31721;41.740;-88.000;2022-09-03T10:47:30;99231.77;;;21.44;59.46
45991;BME280;31721;41.740;-88.000;2022-09-03T10:50:02;99237.30;;;21.41;59.58
45991;BME280;31721;41.740;-88.000;2022-09-03T10:52:41;99241.86;;;21.46;59.46
45991;BME280;31721;41.740;-88.000;2022-09-03T10:55:19;99241.94;;;21.43;59.38
45991;BME280;31721;41.740;-88.000;2022-09-03T10:57:57;99239.66;;;21.29;59.53
45991;BME280;31721;41.740;-88.000;2022-09-03T11:00:33;99234.31;;;21.42;59.55
45991;BME280;31721;41.740;-88.000;2022-09-03T11:03:42;99231.32;;;21.44;59.48
45991;BME280;31721;41.740;-88.000;2022-09-03T11:06:17;99241.83;;;21.55;59.48
45991;BME280;31721;41.740;-88.000;2022-09-03T11:08:51;99239.62;;;21.49;59.41
45991;BME280;31721;41.740;-88.000;2022-09-03T11:11:23;99241.13;;;21.48;59.53
45991;BME280;31721;41.740;-88.000;2022-09-03T11:13:55;99239.42;;;21.45;59.77
45991;BME280;31721;41.740;-88.000;2022-09-03T11:16:27;99243.18;;;21.41;59.70
45991;BME280;31721;41.740;-88.000;2022-09-03T11:19:02;99245.11;;;21.38;59.64
45991;BME280;31721;41.740;-88.000;2022-09-03T11:21:32;99246.34;;;21.41;59.74
45991;BME280;31721;41.740;-88.000;2022-09-03T11:24:06;99245.51;;;21.36;59.96
45991;BME280;31721;41.740;-88.000;2022-09-03T11:26:36;99248.09;;;21.43;59.87
45991;BME280;31721;41.740;-88.000;2022-09-03T11:29:07;99254.40;;;21.38;60.05
45991;BME280;31721;41.740;-88.000;2022-09-03T11:31:45;99259.42;;;21.32;60.18
45991;BME280;31721;41.740;-88.000;2022-09-03T11:34:24;99266.44;;;21.42;59.91
45991;BME280;31721;41.740;-88.000;2022-09-03T11:37:06;99276.89;;;21.28;60.11
45991;BME280;31721;41.740;-88.000;2022-09-03T11:39:42;99278.50;;;21.21;60.20
45991;BME280;31721;41.740;-88.000;2022-09-03T11:42:12;99281.67;;;21.30;59.93
45991;BME280;31721;41.740;-88.000;2022-09-03T11:44:50;99285.23;;;21.38;60.31
45991;BME280;31721;41.740;-88.000;2022-09-03T11:47:37;99284.05;;;21.31;60.25
45991;BME280;31721;41.740;-88.000;2022-09-03T11:50:15;99289.89;;;21.33;60.37
45991;BME280;31721;41.740;-88.000;2022-09-03T11:52:43;99293.40;;;21.35;60.33
45991;BME280;31721;41.740;-88.000;2022-09-03T11:55:11;99298.03;;;21.32;60.57
45991;BME280;31721;41.740;-88.000;2022-09-03T11:57:41;99300.75;;;21.38;60.72
45991;BME280;31721;41.740;-88.000;2022-09-03T12:00:11;99301.03;;;21.34;60.45
45991;BME280;31721;41.740;-88.000;2022-09-03T12:02:44;99301.42;;;21.53;60.71
45991;BME280;31721;41.740;-88.000;2022-09-03T12:05:20;99300.27;;;21.38;60.69
45991;BME280;31721;41.740;-88.000;2022-09-03T12:08:01;99303.88;;;21.44;60.96
45991;BME280;31721;41.740;-88.000;2022-09-03T12:10:38;99309.89;;;21.54;60.99
45991;BME280;31721;41.740;-88.000;2022-09-03T12:13:20;99311.72;;;21.47;60.73
45991;BME280;31721;41.740;-88.000;2022-09-03T12:16:09;99315.29;;;21.38;60.93
45991;BME280;31721;41.740;-88.000;2022-09-03T12:18:41;99312.36;;;21.52;60.90
45991;BME280;31721;41.740;-88.000;2022-09-03T12:21:10;99317.46;;;21.79;60.76
45991;BME280;31721;41.740;-88.000;2022-09-03T12:23:41;99311.79;;;21.95;60.61
45991;BME280;31721;41.740;-88.000;2022-09-03T12:26:11;99318.52;;;21.99;60.52
45991;BME280;31721;41.740;-88.000;2022-09-03T12:28:41;99323.43;;;21.90;60.52
45991;BME280;31721;41.740;-88.000;2022-09-03T12:31:14;99324.23;;;22.05;60.51
45991;BME280;31721;41.740;-88.000;2022-09-03T12:33:42;99323.69;;;21.93;60.67
45991;BME280;31721;41.740;-88.000;2022-09-03T12:36:09;99314.87;;;22.02;60.70
45991;BME280;31721;41.740;-88.000;2022-09-03T12:38:36;99308.73;;;21.88;60.84
45991;BME280;31721;41.740;-88.000;2022-09-03T12:42:39;99306.33;;;21.60;61.63
45991;BME280;31721;41.740;-88.000;2022-09-03T12:45:08;99306.70;;;21.71;61.56
45991;BME280;31721;41.740;-88.000;2022-09-03T12:47:38;99311.79;;;22.02;61.06
45991;BME280;31721;41.740;-88.000;2022-09-03T12:50:09;99320.57;;;22.16;61.01
45991;BME280;31721;41.740;-88.000;2022-09-03T12:52:39;99323.74;;;22.13;60.86
45991;BME280;31721;41.740;-88.000;2022-09-03T12:55:23;99323.97;;;22.12;60.77
45991;BME280;31721;41.740;-88.000;2022-09-03T12:57:55;99326.55;;;22.79;59.61
45991;BME280;31721;41.740;-88.000;2022-09-03T13:00:28;99329.53;;;22.79;59.69
45991;BME280;31721;41.740;-88.000;2022-09-03T13:03:01;99330.54;;;22.66;59.76
45991;BME280;31721;41.740;-88.000;2022-09-03T13:05:32;99329.52;;;22.75;59.38
45991;BME280;31721;41.740;-88.000;2022-09-03T13:08:03;99324.59;;;22.74;59.58